YUL weather

Montreal / Pierre Elliott Trudeau International Airport
Montréal, Quebec, Canada

Public forecast

Using degrees Celsius for public forecast. Weather courtesy of forecast.io.

Current aviation weather report (METAR) for Montreal / Pierre Elliott Trudeau International Airport

Retrieved 2019/10/13 19:00 UTC (44 minutes ago):

CYUL 131900Z 23004KT 140V250 30SM FEW250 15/03 A3000 RMK CI1 CI TR SLP162

Aviation forecast (TAF) for Montreal / Pierre Elliott Trudeau International Airport

Retrieved 2019/10/13 21:42 UTC (0 seconds ago):

TAF CYUL 132038Z 1321/1418 14008KT P6SM FEW240 BECMG 1404/1406 17006KT FM141200 17010KT P6SM FEW050 BKN150 FM141600 21012KT P6SM SCT040 OVC080 RMK NXT FCST BY 140000Z